Jaime Gonzalez Airport
MUCF : now visible

Airfield :











YOU CAN JOIN US ON...

 
LOGIN :

Register | Disclaimer

   EN    FR    IT 

 









Legend :    VFR   Marginal VFR   IFR   Intensive IFR   Very Intensive IFR
Visi :
Ceiling :
>= 8 km
>= 3000ft
5 to 8 km
1000 to 3000 ft
1500m to 5 km
500 to 1000 ft
800 to 1500m
200 to 500 ft
< 800m
< 200 ft
Symbols :   Thunderstorms  Fog  Heavy snow  Heavy precipitations  Wind > 20 kt







- Airport Elevation : 102 ft
- IATA code : CFG


MUCF - Jaime Gonzalez

CURRENT METAR :
  • 191551Z 06010KT 020V100 9999 SCT020 31/22 Q1012

EXPIRED METARs :
  • 191453Z 06009KT 030V100 9999 SCT020 30/22 Q1012
  • 191351Z 07006KT 020V120 9999 FEW020 28/23 Q1012

TAF MUCF
Valid from the 19 at 12:00 until the 20 at 00:00 UTC


191100Z 1912/1924 05005KT 9000 FEW020
BECMG 1916/1918 07011KT
No reported NOTAMs for that airfield.



MET'MAP, your aeronautical weather chart ! - Copyright ORBIFLY December 2007 - Disclaimer

ORBIFLY MET'MAP TEAM :

Programming & Development : Alexandra Zaïnal
Concept & Development : Baudouin d'Aumeries
Co-Development & Prog : Marc-Olivier Méhu
Technical & hardware support : Manuel Goepfert

Contact : metmap@orbifly.com




SOURCES & CREDITS :

   NOAA       Earth
Advisory